Time;durP1;ratioP1;P1;durP2;ratioP2;P2;SDS_P1;SDS_P2;PMS_P1;PMS_P2;Temp;Humidity;BMP_temperature;BMP_pressure;BME280_temperature;BME280_humidity;BME280_pressure;Samples;Min_cycle;Max_cycle;Signal;HPM_P1;HPM_P2
2023/06/18 00:00:35;;;;;;;;;;;;;;;;;;5075278;28;19917;-78
2023/06/18 00:03:01;;;;;;;;;;;;;;;;;;5072107;28;19917;-77
2023/06/18 00:05:27;;;;;;;;;;;;;;;;;;5074287;28;19913;-78
2023/06/18 00:07:53;;;;;;;;;;;;;;;;;;5071875;28;19912;-78
2023/06/18 00:10:19;;;;;;;;;;;;;;;;;;5072345;28;19945;-78
2023/06/18 00:12:45;;;;;;;;;;;;;;;;;;5072913;28;19925;-77
2023/06/18 00:15:11;;;;;;;;;;;;;;;;;;5067651;28;19924;-77
2023/06/18 00:17:37;;;;;;;;;;;;;;;;;;5070955;28;19932;-78
2023/06/18 00:20:03;;;;;;;;;;;;;;;;;;5073445;28;19912;-78
2023/06/18 00:22:29;;;;;;;;;;;;;;;;;;5074362;28;19922;-77
2023/06/18 00:24:55;;;;;;;;;;;;;;;;;;5058112;28;19928;-77
2023/06/18 00:27:21;;;;;;;;;;;;;;;;;;5072626;28;19943;-77
2023/06/18 00:29:47;;;;;;;;;;;;;;;;;;5074491;28;19912;-77
2023/06/18 00:32:14;;;;;;;;;;;;;;;;;;5073791;28;19975;-78
2023/06/18 00:34:41;;;;;;;;;;;;;;;;;;5072259;28;19917;-78
2023/06/18 00:37:09;;;;;;;;;;;;;;;;;;5071645;28;20201;-77
2023/06/18 00:39:35;;;;;;;;;;;;;;;;;;5087905;28;19920;-77
2023/06/18 00:42:01;;;;;;;;;;;;;;;;;;5074301;28;19988;-77
2023/06/18 00:44:27;;;;;;;;;;;;;;;;;;5072867;28;19916;-77
2023/06/18 00:46:56;;;;;;;;;;;;;;;;;;5076852;28;19931;-77
2023/06/18 00:49:22;;;;;;;;;;;;;;;;;;5075370;28;19973;-77
2023/06/18 00:51:48;;;;;;;;;;;;;;;;;;5075580;28;19975;-77
2023/06/18 00:54:14;;;;;;;;;;;;;;;;;;5074026;28;19963;-77
2023/06/18 00:56:40;;;;;;;;;;;;;;;;;;5076225;28;19913;-77
2023/06/18 00:59:06;;;;;;;;;;;;;;;;;;5074403;28;19917;-77
2023/06/18 01:01:36;;;;;;;;;;;;;;;;;;5074777;28;20240;-77
2023/06/18 01:04:04;;;;;;;;;;;;;;;;;;5083811;28;19923;-77
2023/06/18 01:06:34;;;;;;;;;;;;;;;;;;5076510;28;20015;-77
2023/06/18 01:09:01;;;;;;;;;;;;;;;;;;5074129;28;19994;-77
2023/06/18 01:11:29;;;;;;;;;;;;;;;;;;5073698;28;19912;-77
2023/06/18 01:13:55;;;;;;;;;;;;;;;;;;5072722;28;19972;-77
2023/06/18 01:16:24;;;;;;;;;;;;;;;;;;5077768;28;20005;-77
2023/06/18 01:18:51;;;;;;;;;;;;;;;;;;5076571;28;19998;-77
2023/06/18 01:21:20;;;;;;;;;;;;;;;;;;5084723;28;19917;-77
2023/06/18 01:23:49;;;;;;;;;;;;;;;;;;5073495;28;19916;-77
2023/06/18 01:26:15;;;;;;;;;;;;;;;;;;5074622;28;20367;-77
2023/06/18 01:28:41;;;;;;;;;;;;;;;;;;5074363;28;19912;-78
2023/06/18 01:31:07;;;;;;;;;;;;;;;;;;5074855;28;19985;-77
2023/06/18 01:33:34;;;;;;;;;;;;;;;;;;5072174;28;19966;-77
2023/06/18 01:36:00;;;;;;;;;;;;;;;;;;5075917;28;20479;-78
2023/06/18 01:38:26;;;;;;;;;;;;;;;;;;5075769;28;20021;-77
2023/06/18 01:40:52;;;;;;;;;;;;;;;;;;5077407;28;19916;-77
2023/06/18 01:43:18;;;;;;;;;;;;;;;;;;5075192;28;19936;-77
2023/06/18 01:45:44;;;;;;;;;;;;;;;;;;5075681;28;19912;-77
2023/06/18 01:48:10;;;;;;;;;;;;;;;;;;5073683;28;19916;-77
2023/06/18 01:50:36;;;;;;;;;;;;;;;;;;5076142;28;19939;-77
2023/06/18 01:53:02;;;;;;;;;;;;;;;;;;5075078;28;19916;-78
2023/06/18 01:55:28;;;;;;;;;;;;;;;;;;5075229;28;19916;-77
2023/06/18 01:57:54;;;;;;;;;;;;;;;;;;5073808;28;20004;-77
2023/06/18 02:00:20;;;;;;;;;;;;;;;;;;5073502;28;19919;-77
2023/06/18 02:02:46;;;;;;;;;;;;;;;;;;5073863;28;20532;-77
2023/06/18 02:05:12;;;;;;;;;;;;;;;;;;5078136;28;19916;-77
2023/06/18 02:07:38;;;;;;;;;;;;;;;;;;5074726;28;19958;-77
2023/06/18 02:10:04;;;;;;;;;;;;;;;;;;5076207;28;19912;-78
2023/06/18 02:12:30;;;;;;;;;;;;;;;;;;5074871;28;19909;-77
2023/06/18 02:14:56;;;;;;;;;;;;;;;;;;5076268;28;20073;-77
2023/06/18 02:17:22;;;;;;;;;;;;;;;;;;5075589;28;20391;-78
2023/06/18 02:19:48;;;;;;;;;;;;;;;;;;5087002;28;20011;-77
2023/06/18 02:22:15;;;;;;;;;;;;;;;;;;5074081;28;19970;-77
2023/06/18 02:24:42;;;;;;;;;;;;;;;;;;5067773;28;19919;-77
2023/06/18 02:27:08;;;;;;;;;;;;;;;;;;5075039;28;19963;-77
2023/06/18 02:29:34;;;;;;;;;;;;;;;;;;5075403;28;19913;-77
2023/06/18 02:32:00;;;;;;;;;;;;;;;;;;5074975;28;19935;-77
2023/06/18 02:34:27;;;;;;;;;;;;;;;;;;5071643;28;19924;-77
2023/06/18 02:36:54;;;;;;;;;;;;;;;;;;5073684;28;19947;-77
2023/06/18 02:39:20;;;;;;;;;;;;;;;;;;5074336;28;19979;-77
2023/06/18 02:41:46;;;;;;;;;;;;;;;;;;5068320;28;19927;-77
2023/06/18 02:44:12;;;;;;;;;;;;;;;;;;5071874;28;19913;-77
2023/06/18 02:46:38;;;;;;;;;;;;;;;;;;5075478;28;20018;-77
2023/06/18 02:49:04;;;;;;;;;;;;;;;;;;5069992;28;20021;-77
2023/06/18 02:51:31;;;;;;;;;;;;;;;;;;5073103;28;20272;-77
2023/06/18 02:53:59;;;;;;;;;;;;;;;;;;5082515;28;20384;-78
2023/06/18 02:56:27;;;;;;;;;;;;;;;;;;5077489;28;20058;-79
2023/06/18 02:58:56;;;;;;;;;;;;;;;;;;5071615;28;19920;-77
2023/06/18 03:01:23;;;;;;;;;;;;;;;;;;5071572;28;19912;-77
2023/06/18 03:03:49;;;;;;;;;;;;;;;;;;5073768;28;20342;-77
2023/06/18 03:06:15;;;;;;;;;;;;;;;;;;5091405;28;20363;-78
2023/06/18 03:08:41;;;;;;;;;;;;;;;;;;5077949;28;20007;-77
2023/06/18 03:11:07;;;;;;;;;;;;;;;;;;5070536;28;19912;-77
2023/06/18 03:13:33;;;;;;;;;;;;;;;;;;5069770;28;20374;-77
2023/06/18 03:15:59;;;;;;;;;;;;;;;;;;5068785;28;19921;-78
2023/06/18 03:18:25;;;;;;;;;;;;;;;;;;5065017;28;20012;-78
2023/06/18 03:20:51;;;;;;;;;;;;;;;;;;5068798;28;19951;-77
2023/06/18 03:23:17;;;;;;;;;;;;;;;;;;5103257;27;19917;-78
2023/06/18 03:25:42;;;;;;;;;;;;;;;;;;5069681;28;20271;-78
2023/06/18 03:28:08;;;;;;;;;;;;;;;;;;5083037;28;20573;-78
2023/06/18 03:30:35;;;;;;;;;;;;;;;;;;5079076;28;19901;-78
2023/06/18 03:33:02;;;;;;;;;;;;;;;;;;5075776;28;19957;-78
2023/06/18 03:35:28;;;;;;;;;;;;;;;;;;5084928;28;19912;-77
2023/06/18 03:37:54;;;;;;;;;;;;;;;;;;5072589;28;20379;-77
2023/06/18 03:40:21;;;;;;;;;;;;;;;;;;5072320;28;20276;-77
2023/06/18 03:42:47;;;;;;;;;;;;;;;;;;5070767;28;19935;-77
2023/06/18 03:45:12;;;;;;;;;;;;;;;;;;5080523;28;20299;-77
2023/06/18 03:47:38;;;;;;;;;;;;;;;;;;5058815;28;20696;-77
2023/06/18 03:50:04;;;;;;;;;;;;;;;;;;5082380;28;20260;-77
2023/06/18 03:52:30;;;;;;;;;;;;;;;;;;5078975;28;20384;-77
2023/06/18 03:54:56;;;;;;;;;;;;;;;;;;5068335;28;19970;-77
2023/06/18 03:57:22;;;;;;;;;;;;;;;;;;5070162;28;19932;-77
2023/06/18 03:59:51;;;;;;;;;;;;;;;;;;5073793;28;19919;-77
2023/06/18 04:02:17;;;;;;;;;;;;;;;;;;5069825;28;19974;-77
2023/06/18 04:04:43;;;;;;;;;;;;;;;;;;5090299;28;19916;-76
2023/06/18 04:07:09;;;;;;;;;;;;;;;;;;5073830;28;19928;-77
2023/06/18 04:09:35;;;;;;;;;;;;;;;;;;5074442;28;19916;-78
2023/06/18 04:12:01;;;;;;;;;;;;;;;;;;5072225;28;19913;-77
2023/06/18 04:14:27;;;;;;;;;;;;;;;;;;5072110;28;19916;-77
2023/06/18 04:16:53;;;;;;;;;;;;;;;;;;5072413;28;19913;-77
2023/06/18 04:19:19;;;;;;;;;;;;;;;;;;5075596;28;19935;-77
2023/06/18 04:21:45;;;;;;;;;;;;;;;;;;5077225;28;19916;-77
2023/06/18 04:24:12;;;;;;;;;;;;;;;;;;5078230;28;19939;-77
2023/06/18 04:26:38;;;;;;;;;;;;;;;;;;5073164;28;20007;-77
2023/06/18 04:29:05;;;;;;;;;;;;;;;;;;5076725;28;20439;-77
2023/06/18 04:31:30;;;;;;;;;;;;;;;;;;5077297;28;19913;-77
2023/06/18 04:33:56;;;;;;;;;;;;;;;;;;5078772;28;19912;-77
2023/06/18 04:36:22;;;;;;;;;;;;;;;;;;5083615;28;19913;-77
2023/06/18 04:38:48;;;;;;;;;;;;;;;;;;5098871;28;19912;-77
2023/06/18 04:41:14;;;;;;;;;;;;;;;;;;5079841;28;19917;-77
2023/06/18 04:43:40;;;;;;;;;;;;;;;;;;5088047;28;20014;-77
2023/06/18 04:46:06;;;;;;;;;;;;;;;;;;5078372;28;19959;-77
2023/06/18 04:48:34;;;;;;;;;;;;;;;;;;5077856;28;19908;-77
2023/06/18 04:51:00;;;;;;;;;;;;;;;;;;5076156;28;19916;-77
2023/06/18 04:53:26;;;;;;;;;;;;;;;;;;5077740;28;20275;-77
2023/06/18 04:55:51;;;;;;;;;;;;;;;;;;5072566;28;20367;-77
2023/06/18 04:58:20;;;;;;;;;;;;;;;;;;5071202;28;19931;-77
2023/06/18 05:00:46;;;;;;;;;;;;;;;;;;5075720;28;19916;-77
2023/06/18 05:03:12;;;;;;;;;;;;;;;;;;5073951;28;19920;-77
2023/06/18 05:05:38;;;;;;;;;;;;;;;;;;5075555;28;20260;-77
2023/06/18 05:08:04;;;;;;;;;;;;;;;;;;5070751;28;19912;-77
2023/06/18 05:10:30;;;;;;;;;;;;;;;;;;5073206;28;19924;-77
2023/06/18 05:12:56;;;;;;;;;;;;;;;;;;5072570;28;19936;-78
2023/06/18 05:15:22;;;;;;;;;;;;;;;;;;5071119;28;20264;-77
2023/06/18 05:17:48;;;;;;;;;;;;;;;;;;5076196;28;20420;-77
2023/06/18 05:20:14;;;;;;;;;;;;;;;;;;5074337;28;20430;-78
2023/06/18 05:22:40;;;;;;;;;;;;;;;;;;5057584;28;19939;-77
2023/06/18 05:25:06;;;;;;;;;;;;;;;;;;5056556;28;19916;-78
2023/06/18 05:27:32;;;;;;;;;;;;;;;;;;5072114;28;19920;-78
2023/06/18 05:29:59;;;;;;;;;;;;;;;;;;5076469;28;19912;-77
2023/06/18 05:32:25;;;;;;;;;;;;;;;;;;5074937;28;20433;-78
2023/06/18 05:34:51;;;;;;;;;;;;;;;;;;5083791;28;20318;-77
2023/06/18 05:37:17;;;;;;;;;;;;;;;;;;5075089;28;19921;-77
2023/06/18 05:39:43;;;;;;;;;;;;;;;;;;5077687;28;19962;-77
2023/06/18 05:42:09;;;;;;;;;;;;;;;;;;5077350;28;19916;-77
2023/06/18 05:44:35;;;;;;;;;;;;;;;;;;5075457;28;19912;-76
2023/06/18 05:47:01;;;;;;;;;;;;;;;;;;5071356;28;20419;-78
2023/06/18 05:49:27;;;;;;;;;;;;;;;;;;5076173;28;19917;-77
2023/06/18 05:51:53;;;;;;;;;;;;;;;;;;5083079;28;19920;-78
2023/06/18 05:54:19;;;;;;;;;;;;;;;;;;5075736;28;19917;-78
2023/06/18 05:56:45;;;;;;;;;;;;;;;;;;5072836;28;19931;-77
2023/06/18 05:59:10;;;;;;;;;;;;;;;;;;5055724;28;19923;-77
2023/06/18 06:01:36;;;;;;;;;;;;;;;;;;5069123;28;19951;-78
2023/06/18 06:04:03;;;;;;;;;;;;;;;;;;5075805;28;19974;-80
2023/06/18 06:06:29;;;;;;;;;;;;;;;;;;5081662;28;19920;-77
2023/06/18 06:08:55;;;;;;;;;;;;;;;;;;5080368;28;19912;-77
2023/06/18 06:11:21;;;;;;;;;;;;;;;;;;5072703;28;19919;-77
2023/06/18 06:13:47;;;;;;;;;;;;;;;;;;5072880;28;19916;-77
2023/06/18 06:16:13;;;;;;;;;;;;;;;;;;5071128;28;19970;-77
2023/06/18 06:18:39;;;;;;;;;;;;;;;;;;5075986;28;19924;-77
2023/06/18 06:21:05;;;;;;;;;;;;;;;;;;5085411;28;19924;-77
2023/06/18 06:23:31;;;;;;;;;;;;;;;;;;5072453;28;20356;-77
2023/06/18 06:25:56;;;;;;;;;;;;;;;;;;5073126;28;19979;-77
2023/06/18 06:28:22;;;;;;;;;;;;;;;;;;5085373;28;19992;-77
2023/06/18 06:30:48;;;;;;;;;;;;;;;;;;5074678;28;19955;-77
2023/06/18 06:33:14;;;;;;;;;;;;;;;;;;5087610;28;20027;-78
2023/06/18 06:35:40;;;;;;;;;;;;;;;;;;5080876;28;20011;-77
2023/06/18 06:38:06;;;;;;;;;;;;;;;;;;5077143;28;20007;-77
2023/06/18 06:40:32;;;;;;;;;;;;;;;;;;5074836;28;19913;-77
2023/06/18 06:42:58;;;;;;;;;;;;;;;;;;5071841;28;19911;-77
2023/06/18 06:45:24;;;;;;;;;;;;;;;;;;5072650;28;19909;-77
2023/06/18 06:47:50;;;;;;;;;;;;;;;;;;5071574;28;19928;-77
2023/06/18 06:50:16;;;;;;;;;;;;;;;;;;5068515;28;19914;-77
2023/06/18 06:52:42;;;;;;;;;;;;;;;;;;5071516;28;19959;-79
2023/06/18 06:55:08;;;;;;;;;;;;;;;;;;5054960;28;20320;-82
2023/06/18 06:57:34;;;;;;;;;;;;;;;;;;5066159;28;19974;-79
2023/06/18 07:00:00;;;;;;;;;;;;;;;;;;5078300;28;20049;-77
2023/06/18 07:02:26;;;;;;;;;;;;;;;;;;5084332;28;19916;-77
2023/06/18 07:04:52;;;;;;;;;;;;;;;;;;5086488;28;19922;-78
2023/06/18 07:07:18;;;;;;;;;;;;;;;;;;5085497;28;19969;-77
2023/06/18 07:09:44;;;;;;;;;;;;;;;;;;5079382;28;20111;-78
2023/06/18 07:12:11;;;;;;;;;;;;;;;;;;5072974;28;20266;-78
2023/06/18 07:14:37;;;;;;;;;;;;;;;;;;5073253;28;20320;-78
2023/06/18 07:17:03;;;;;;;;;;;;;;;;;;5086031;28;19931;-78
2023/06/18 07:19:29;;;;;;;;;;;;;;;;;;5068560;28;19913;-79
2023/06/18 07:21:55;;;;;;;;;;;;;;;;;;5072354;28;19913;-79
2023/06/18 07:24:21;;;;;;;;;;;;;;;;;;5076582;28;20402;-79
2023/06/18 07:26:47;;;;;;;;;;;;;;;;;;5064305;28;20026;-78
2023/06/18 07:29:13;;;;;;;;;;;;;;;;;;5073904;28;19917;-79
2023/06/18 07:31:39;;;;;;;;;;;;;;;;;;5072363;28;19916;-78
2023/06/18 07:34:05;;;;;;;;;;;;;;;;;;5072708;28;19913;-79
2023/06/18 07:36:31;;;;;;;;;;;;;;;;;;5069612;28;19929;-79
2023/06/18 07:38:56;;;;;;;;;;;;;;;;;;5073164;28;19924;-79
2023/06/18 07:41:22;;;;;;;;;;;;;;;;;;5073009;28;19916;-78
2023/06/18 07:43:48;;;;;;;;;;;;;;;;;;5081395;28;19923;-79
2023/06/18 07:46:14;;;;;;;;;;;;;;;;;;5081071;28;19913;-79
2023/06/18 07:48:40;;;;;;;;;;;;;;;;;;5072034;28;19965;-78
2023/06/18 07:51:06;;;;;;;;;;;;;;;;;;5078086;28;19934;-78
2023/06/18 07:53:32;;;;;;;;;;;;;;;;;;5069106;28;19917;-78
2023/06/18 07:55:58;;;;;;;;;;;;;;;;;;5074321;28;19996;-78
2023/06/18 07:58:24;;;;;;;;;;;;;;;;;;5059535;28;20039;-78
2023/06/18 08:00:50;;;;;;;;;;;;;;;;;;5059091;28;20268;-78
2023/06/18 08:03:16;;;;;;;;;;;;;;;;;;5095334;28;20003;-78
2023/06/18 08:05:42;;;;;;;;;;;;;;;;;;5085228;28;19916;-78
2023/06/18 08:08:08;;;;;;;;;;;;;;;;;;5073283;28;19932;-78
2023/06/18 08:10:34;;;;;;;;;;;;;;;;;;5075251;28;19979;-78
2023/06/18 08:13:00;;;;;;;;;;;;;;;;;;5078044;28;19920;-76
2023/06/18 08:15:26;;;;;;;;;;;;;;;;;;5060854;28;19916;-77
2023/06/18 08:17:51;;;;;;;;;;;;;;;;;;5071186;28;19905;-78
2023/06/18 08:20:17;;;;;;;;;;;;;;;;;;5073107;28;20436;-78
2023/06/18 08:22:43;;;;;;;;;;;;;;;;;;5067973;28;19916;-78
2023/06/18 08:25:09;;;;;;;;;;;;;;;;;;5082260;28;19924;-78
2023/06/18 08:27:35;;;;;;;;;;;;;;;;;;5074249;28;19931;-77
2023/06/18 08:30:03;;;;;;;;;;;;;;;;;;5075295;28;19912;-79
2023/06/18 08:32:29;;;;;;;;;;;;;;;;;;5087114;28;20227;-78
2023/06/18 08:34:54;;;;;;;;;;;;;;;;;;5089233;28;20376;-77
2023/06/18 08:37:20;;;;;;;;;;;;;;;;;;5068494;28;19927;-78
2023/06/18 08:39:46;;;;;;;;;;;;;;;;;;5066780;28;19927;-77
2023/06/18 08:42:20;;;;;;;;;;;;;;;;;;5068598;28;20007;-77
2023/06/18 08:44:46;;;;;;;;;;;;;;;;;;5087283;28;19939;-79
2023/06/18 08:47:12;;;;;;;;;;;;;;;;;;5072278;28;20063;-79
2023/06/18 08:49:39;;;;;;;;;;;;;;;;;;5077501;28;19985;-78
2023/06/18 08:52:05;;;;;;;;;;;;;;;;;;5066623;28;19924;-79
2023/06/18 08:54:31;;;;;;;;;;;;;;;;;;5082027;28;19942;-79
2023/06/18 08:56:57;;;;;;;;;;;;;;;;;;5084517;28;20035;-78
2023/06/18 08:59:23;;;;;;;;;;;;;;;;;;5072078;28;19923;-78
2023/06/18 09:01:49;;;;;;;;;;;;;;;;;;5069876;28;19921;-78
2023/06/18 09:04:15;;;;;;;;;;;;;;;;;;5072851;28;20026;-79
2023/06/18 09:06:41;;;;;;;;;;;;;;;;;;5076524;28;19912;-78
2023/06/18 09:09:07;;;;;;;;;;;;;;;;;;5067004;28;20300;-78
2023/06/18 09:11:33;;;;;;;;;;;;;;;;;;5108163;28;20382;-79
2023/06/18 09:13:59;;;;;;;;;;;;;;;;;;5073635;28;19916;-79
2023/06/18 09:16:25;;;;;;;;;;;;;;;;;;5074836;28;19938;-78
2023/06/18 09:18:51;;;;;;;;;;;;;;;;;;5074889;28;19985;-79
2023/06/18 09:21:17;;;;;;;;;;;;;;;;;;5075730;28;19917;-78
2023/06/18 09:23:43;;;;;;;;;;;;;;;;;;5077410;28;19913;-79
2023/06/18 09:26:09;;;;;;;;;;;;;;;;;;5096123;28;19920;-78
2023/06/18 09:28:35;;;;;;;;;;;;;;;;;;5070216;28;19956;-81
2023/06/18 09:31:01;;;;;;;;;;;;;;;;;;5068874;28;20048;-80
2023/06/18 09:33:28;;;;;;;;;;;;;;;;;;5081312;28;19969;-80
2023/06/18 09:35:54;;;;;;;;;;;;;;;;;;5069809;28;20368;-79
2023/06/18 09:38:20;;;;;;;;;;;;;;;;;;5080483;28;19963;-79
2023/06/18 09:40:46;;;;;;;;;;;;;;;;;;5070505;28;19970;-79
2023/06/18 09:43:12;;;;;;;;;;;;;;;;;;5069964;28;19908;-80
2023/06/18 09:45:38;;;;;;;;;;;;;;;;;;5075201;28;19912;-79
2023/06/18 09:48:03;;;;;;;;;;;;;;;;;;5074395;28;19916;-80
2023/06/18 09:50:29;;;;;;;;;;;;;;;;;;5079858;28;19924;-80
2023/06/18 09:52:55;;;;;;;;;;;;;;;;;;5073232;28;19924;-80
2023/06/18 09:55:21;;;;;;;;;;;;;;;;;;5075102;28;19897;-80
2023/06/18 09:57:47;;;;;;;;;;;;;;;;;;5077311;28;19921;-79
2023/06/18 10:00:13;;;;;;;;;;;;;;;;;;5077528;28;19909;-79
2023/06/18 10:02:39;;;;;;;;;;;;;;;;;;5084532;28;20452;-79
2023/06/18 10:05:05;;;;;;;;;;;;;;;;;;5102473;28;20173;-80
2023/06/18 10:07:31;;;;;;;;;;;;;;;;;;5083655;28;19920;-79
2023/06/18 10:09:57;;;;;;;;;;;;;;;;;;5074774;28;19915;-80
2023/06/18 10:12:23;;;;;;;;;;;;;;;;;;5073751;28;20355;-80
2023/06/18 10:14:49;;;;;;;;;;;;;;;;;;5078865;28;19975;-79
2023/06/18 10:17:15;;;;;;;;;;;;;;;;;;5080836;28;19923;-78
2023/06/18 10:19:41;;;;;;;;;;;;;;;;;;5065065;28;19970;-79
2023/06/18 10:22:07;;;;;;;;;;;;;;;;;;5075976;28;19916;-78
2023/06/18 10:24:33;;;;;;;;;;;;;;;;;;5094016;28;19919;-79
2023/06/18 10:26:59;;;;;;;;;;;;;;;;;;5090337;28;19916;-78
2023/06/18 10:29:25;;;;;;;;;;;;;;;;;;5076297;28;20015;-78
2023/06/18 10:31:51;;;;;;;;;;;;;;;;;;5077676;28;19952;-79
2023/06/18 10:34:17;;;;;;;;;;;;;;;;;;5078203;28;20276;-78
2023/06/18 10:36:43;;;;;;;;;;;;;;;;;;5072399;28;19920;-78
2023/06/18 10:39:09;;;;;;;;;;;;;;;;;;5074706;28;19924;-78
2023/06/18 10:41:35;;;;;;;;;;;;;;;;;;5078943;28;19922;-78
2023/06/18 10:44:02;;;;;;;;;;;;;;;;;;5076158;28;19924;-78
2023/06/18 10:46:33;;;;;;;;;;;;;;;;;;5075170;28;19917;-78
2023/06/18 10:48:59;;;;;;;;;;;;;;;;;;5071888;28;19927;-78
2023/06/18 10:51:27;;;;;;;;;;;;;;;;;;5076774;28;19916;-78
2023/06/18 10:53:53;;;;;;;;;;;;;;;;;;5079040;28;20434;-79
2023/06/18 10:56:20;;;;;;;;;;;;;;;;;;5072131;28;19956;-78
2023/06/18 10:58:46;;;;;;;;;;;;;;;;;;5073139;28;19978;-80
2023/06/18 11:01:12;;;;;;;;;;;;;;;;;;5073857;28;19920;-77
2023/06/18 11:03:38;;;;;;;;;;;;;;;;;;5073694;28;19916;-80
2023/06/18 11:06:04;;;;;;;;;;;;;;;;;;5072318;28;19912;-79
2023/06/18 11:08:30;;;;;;;;;;;;;;;;;;5073176;28;20419;-79
2023/06/18 11:10:56;;;;;;;;;;;;;;;;;;5071980;28;19916;-79
2023/06/18 11:13:22;;;;;;;;;;;;;;;;;;5074262;28;20053;-79
2023/06/18 11:15:48;;;;;;;;;;;;;;;;;;5074652;28;19913;-79
2023/06/18 11:18:14;;;;;;;;;;;;;;;;;;5070866;28;19924;-80
2023/06/18 11:20:40;;;;;;;;;;;;;;;;;;5070655;28;19920;-81
2023/06/18 11:23:06;;;;;;;;;;;;;;;;;;5068687;28;19916;-80
2023/06/18 11:25:32;;;;;;;;;;;;;;;;;;5061471;28;19920;-80
2023/06/18 11:28:02;;;;;;;;;;;;;;;;;;5067729;28;20010;-80
2023/06/18 11:30:28;;;;;;;;;;;;;;;;;;5092530;28;19971;-80
2023/06/18 11:32:54;;;;;;;;;;;;;;;;;;5083002;28;19900;-80
2023/06/18 11:35:20;;;;;;;;;;;;;;;;;;5073489;28;19916;-80
2023/06/18 11:37:46;;;;;;;;;;;;;;;;;;5074254;28;19939;-80
2023/06/18 11:40:12;;;;;;;;;;;;;;;;;;5072397;28;19916;-79
2023/06/18 11:42:38;;;;;;;;;;;;;;;;;;5070816;28;19912;-80
2023/06/18 11:45:05;;;;;;;;;;;;;;;;;;5073475;28;19908;-80
2023/06/18 11:47:30;;;;;;;;;;;;;;;;;;5078048;28;20011;-79
2023/06/18 11:49:56;;;;;;;;;;;;;;;;;;5078235;28;19997;-80
2023/06/18 11:52:22;;;;;;;;;;;;;;;;;;5089645;28;19916;-80
2023/06/18 11:54:48;;;;;;;;;;;;;;;;;;5072191;28;19913;-80
2023/06/18 11:57:14;;;;;;;;;;;;;;;;;;5072810;28;19928;-81
2023/06/18 11:59:40;;;;;;;;;;;;;;;;;;5073412;28;19916;-81
2023/06/18 12:02:06;;;;;;;;;;;;;;;;;;5074334;28;19916;-80
2023/06/18 12:04:32;;;;;;;;;;;;;;;;;;5072312;28;20012;-80
2023/06/18 12:06:58;;;;;;;;;;;;;;;;;;5079482;28;19913;-77
2023/06/18 12:09:24;;;;;;;;;;;;;;;;;;5069418;28;19962;-78
2023/06/18 12:11:50;;;;;;;;;;;;;;;;;;5071801;28;20061;-78
2023/06/18 12:14:16;;;;;;;;;;;;;;;;;;5072375;28;19932;-78
2023/06/18 12:16:42;;;;;;;;;;;;;;;;;;5072886;28;19936;-79
2023/06/18 12:19:08;;;;;;;;;;;;;;;;;;5071266;28;19920;-78
2023/06/18 12:21:35;;;;;;;;;;;;;;;;;;5072823;28;19923;-79
2023/06/18 12:24:01;;;;;;;;;;;;;;;;;;5071074;28;19999;-79
2023/06/18 12:26:27;;;;;;;;;;;;;;;;;;5053688;28;20000;-79
2023/06/18 12:28:53;;;;;;;;;;;;;;;;;;5069553;28;19944;-78
2023/06/18 12:31:19;;;;;;;;;;;;;;;;;;5073869;28;19908;-79
2023/06/18 12:33:45;;;;;;;;;;;;;;;;;;5070770;28;19928;-78
2023/06/18 12:36:11;;;;;;;;;;;;;;;;;;5072977;28;19923;-79
2023/06/18 12:38:37;;;;;;;;;;;;;;;;;;5071489;28;19920;-78
2023/06/18 12:41:04;;;;;;;;;;;;;;;;;;5075548;28;19920;-79
2023/06/18 12:43:30;;;;;;;;;;;;;;;;;;5077179;28;20477;-78
2023/06/18 12:45:56;;;;;;;;;;;;;;;;;;5082084;28;19916;-79
2023/06/18 12:48:26;;;;;;;;;;;;;;;;;;5088007;28;20356;-79
2023/06/18 12:50:52;;;;;;;;;;;;;;;;;;5076867;28;20368;-78
2023/06/18 12:53:18;;;;;;;;;;;;;;;;;;5078313;28;19919;-79
2023/06/18 12:55:44;;;;;;;;;;;;;;;;;;5075579;28;19916;-79
2023/06/18 12:58:10;;;;;;;;;;;;;;;;;;5077566;28;19928;-78
2023/06/18 13:00:36;;;;;;;;;;;;;;;;;;5095172;28;19927;-78
2023/06/18 13:03:02;;;;;;;;;;;;;;;;;;5087605;28;19913;-78
2023/06/18 13:05:28;;;;;;;;;;;;;;;;;;5075091;28;19912;-78
2023/06/18 13:07:54;;;;;;;;;;;;;;;;;;5075665;28;20003;-78
2023/06/18 13:10:20;;;;;;;;;;;;;;;;;;5075695;28;20162;-78
2023/06/18 13:12:46;;;;;;;;;;;;;;;;;;5077043;28;19939;-78
2023/06/18 13:15:13;;;;;;;;;;;;;;;;;;5076206;28;19992;-78
2023/06/18 13:17:39;;;;;;;;;;;;;;;;;;5073704;28;19931;-78
2023/06/18 13:20:05;;;;;;;;;;;;;;;;;;5074743;28;20014;-78
2023/06/18 13:22:31;;;;;;;;;;;;;;;;;;5072913;28;19999;-78
2023/06/18 13:24:58;;;;;;;;;;;;;;;;;;5075941;28;20007;-78
2023/06/18 13:27:25;;;;;;;;;;;;;;;;;;5073954;28;19916;-79
2023/06/18 13:29:52;;;;;;;;;;;;;;;;;;5090859;28;20399;-78
2023/06/18 13:32:18;;;;;;;;;;;;;;;;;;5078597;28;20371;-78
2023/06/18 13:34:44;;;;;;;;;;;;;;;;;;5087433;28;20023;-78
2023/06/18 13:37:10;;;;;;;;;;;;;;;;;;5077558;28;20011;-78
2023/06/18 13:39:36;;;;;;;;;;;;;;;;;;5071249;28;19921;-80
2023/06/18 13:42:02;;;;;;;;;;;;;;;;;;5071082;28;20291;-79
2023/06/18 13:44:28;;;;;;;;;;;;;;;;;;5073271;28;20513;-78
2023/06/18 13:46:54;;;;;;;;;;;;;;;;;;5075651;28;19967;-78
2023/06/18 13:49:20;;;;;;;;;;;;;;;;;;5073868;28;19936;-80
2023/06/18 13:51:46;;;;;;;;;;;;;;;;;;5069709;28;19927;-78
2023/06/18 13:54:12;;;;;;;;;;;;;;;;;;5074628;28;19924;-79
2023/06/18 13:56:38;;;;;;;;;;;;;;;;;;5067649;28;19947;-81
2023/06/18 13:59:04;;;;;;;;;;;;;;;;;;5069825;28;20010;-78
2023/06/18 14:01:30;;;;;;;;;;;;;;;;;;5069876;28;20227;-78
2023/06/18 14:03:56;;;;;;;;;;;;;;;;;;5072048;28;19916;-78
2023/06/18 14:06:22;;;;;;;;;;;;;;;;;;5072941;28;19913;-79
2023/06/18 14:08:50;;;;;;;;;;;;;;;;;;5072025;28;19908;-79
2023/06/18 14:11:16;;;;;;;;;;;;;;;;;;5064902;28;20382;-79
2023/06/18 14:13:42;;;;;;;;;;;;;;;;;;5070835;28;19917;-78
2023/06/18 14:16:08;;;;;;;;;;;;;;;;;;5066242;28;19917;-79
2023/06/18 14:18:34;;;;;;;;;;;;;;;;;;5080329;28;19959;-79
2023/06/18 14:21:00;;;;;;;;;;;;;;;;;;5073291;28;19920;-80
2023/06/18 14:23:27;;;;;;;;;;;;;;;;;;5073232;28;19944;-79
2023/06/18 14:25:53;;;;;;;;;;;;;;;;;;5071420;28;19920;-79
2023/06/18 14:28:19;;;;;;;;;;;;;;;;;;5065719;28;19920;-79
2023/06/18 14:30:45;;;;;;;;;;;;;;;;;;5064518;28;20019;-79
2023/06/18 14:33:11;;;;;;;;;;;;;;;;;;5064639;28;19916;-79
2023/06/18 14:35:37;;;;;;;;;;;;;;;;;;5076698;28;19920;-79
2023/06/18 14:38:03;;;;;;;;;;;;;;;;;;5072682;28;19917;-79
2023/06/18 14:40:29;;;;;;;;;;;;;;;;;;5069409;28;20256;-79
2023/06/18 14:42:55;;;;;;;;;;;;;;;;;;5070402;28;20417;-79
2023/06/18 14:45:21;;;;;;;;;;;;;;;;;;5068642;28;19916;-77
2023/06/18 14:47:47;;;;;;;;;;;;;;;;;;5066266;28;19923;-79
2023/06/18 14:50:14;;;;;;;;;;;;;;;;;;5068098;28;19912;-80
2023/06/18 14:52:40;;;;;;;;;;;;;;;;;;5064511;28;19980;-79
2023/06/18 14:55:06;;;;;;;;;;;;;;;;;;5070112;28;19963;-79
2023/06/18 14:57:32;;;;;;;;;;;;;;;;;;5069586;28;19979;-78
2023/06/18 14:59:58;;;;;;;;;;;;;;;;;;5065818;28;19912;-79
2023/06/18 15:02:24;;;;;;;;;;;;;;;;;;5066096;28;19928;-79
2023/06/18 15:04:52;;;;;;;;;;;;;;;;;;5068883;28;20015;-78
2023/06/18 15:07:18;;;;;;;;;;;;;;;;;;5065296;28;19940;-78
2023/06/18 15:09:44;;;;;;;;;;;;;;;;;;5064962;28;19954;-78
2023/06/18 15:12:10;;;;;;;;;;;;;;;;;;5067551;28;19980;-78
2023/06/18 15:14:36;;;;;;;;;;;;;;;;;;5067390;28;19951;-77
2023/06/18 15:17:02;;;;;;;;;;;;;;;;;;5069382;28;20280;-77
2023/06/18 15:19:28;;;;;;;;;;;;;;;;;;5070456;28;19982;-79
2023/06/18 15:21:54;;;;;;;;;;;;;;;;;;5068526;28;19974;-77
2023/06/18 15:24:20;;;;;;;;;;;;;;;;;;5070275;28;19921;-78
2023/06/18 15:26:46;;;;;;;;;;;;;;;;;;5072293;28;19920;-78
2023/06/18 15:29:12;;;;;;;;;;;;;;;;;;5067480;28;19913;-78
2023/06/18 15:31:38;;;;;;;;;;;;;;;;;;5066156;28;19928;-76
2023/06/18 15:34:04;;;;;;;;;;;;;;;;;;5099529;27;19912;-78
2023/06/18 15:36:30;;;;;;;;;;;;;;;;;;5071692;28;19927;-78
2023/06/18 15:38:56;;;;;;;;;;;;;;;;;;5062613;28;20378;-78
2023/06/18 15:41:22;;;;;;;;;;;;;;;;;;5068364;28;20347;-78
2023/06/18 15:43:48;;;;;;;;;;;;;;;;;;5068391;28;20122;-77
2023/06/18 15:46:15;;;;;;;;;;;;;;;;;;5061754;28;19913;-78
2023/06/18 15:48:41;;;;;;;;;;;;;;;;;;5070204;28;20002;-79
2023/06/18 15:51:07;;;;;;;;;;;;;;;;;;5072535;28;20335;-78
2023/06/18 15:53:33;;;;;;;;;;;;;;;;;;5066622;28;19924;-78
2023/06/18 15:55:59;;;;;;;;;;;;;;;;;;5065261;28;19928;-83
2023/06/18 15:58:25;;;;;;;;;;;;;;;;;;5065651;28;20065;-83
2023/06/18 16:00:51;;;;;;;;;;;;;;;;;;5063027;28;20003;-82
2023/06/18 16:03:17;;;;;;;;;;;;;;;;;;5068191;28;19920;-81
2023/06/18 16:05:43;;;;;;;;;;;;;;;;;;5067837;28;19947;-82
2023/06/18 16:08:09;;;;;;;;;;;;;;;;;;5067085;28;19916;-81
2023/06/18 16:10:35;;;;;;;;;;;;;;;;;;5065587;28;20110;-81
2023/06/18 16:13:01;;;;;;;;;;;;;;;;;;5067866;28;20391;-82
2023/06/18 16:15:26;;;;;;;;;;;;;;;;;;5072879;28;19943;-81
2023/06/18 16:17:54;;;;;;;;;;;;;;;;;;5072774;28;19917;-81
2023/06/18 16:20:20;;;;;;;;;;;;;;;;;;5077200;28;20070;-82
2023/06/18 16:22:46;;;;;;;;;;;;;;;;;;5069636;28;20338;-82
2023/06/18 16:25:12;;;;;;;;;;;;;;;;;;5072715;28;19920;-81
2023/06/18 16:27:38;;;;;;;;;;;;;;;;;;5073666;28;19999;-81
2023/06/18 16:30:04;;;;;;;;;;;;;;;;;;5073740;28;19944;-82
2023/06/18 16:32:30;;;;;;;;;;;;;;;;;;5068624;28;19927;-81
2023/06/18 16:34:56;;;;;;;;;;;;;;;;;;5069788;28;19970;-82
2023/06/18 16:37:22;;;;;;;;;;;;;;;;;;5073755;28;19924;-82